sensor_id;sensor_type;location;lat;lon;timestamp;P1;durP1;ratioP1;P2;durP2;ratioP2
76850;SDS011;65824;43.726;20.692;2023-06-04T00:02:05;12.32;;;7.55;;
76850;SDS011;65824;43.726;20.692;2023-06-04T00:04:31;13.95;;;8.60;;
76850;SDS011;65824;43.726;20.692;2023-06-04T00:06:57;13.45;;;9.13;;
76850;SDS011;65824;43.726;20.692;2023-06-04T00:09:23;13.43;;;8.63;;
76850;SDS011;65824;43.726;20.692;2023-06-04T00:11:49;11.35;;;8.10;;
76850;SDS011;65824;43.726;20.692;2023-06-04T00:14:15;11.95;;;7.65;;
76850;SDS011;65824;43.726;20.692;2023-06-04T00:16:42;11.25;;;7.00;;
76850;SDS011;65824;43.726;20.692;2023-06-04T00:19:08;10.40;;;5.93;;
76850;SDS011;65824;43.726;20.692;2023-06-04T00:21:35;9.35;;;5.80;;
76850;SDS011;65824;43.726;20.692;2023-06-04T00:24:01;8.98;;;5.63;;
76850;SDS011;65824;43.726;20.692;2023-06-04T00:26:29;11.02;;;5.60;;
76850;SDS011;65824;43.726;20.692;2023-06-04T00:28:55;11.98;;;5.40;;
76850;SDS011;65824;43.726;20.692;2023-06-04T00:31:25;9.20;;;5.57;;
76850;SDS011;65824;43.726;20.692;2023-06-04T00:33:51;9.75;;;5.82;;
76850;SDS011;65824;43.726;20.692;2023-06-04T00:36:16;11.70;;;5.85;;
76850;SDS011;65824;43.726;20.692;2023-06-04T00:38:42;11.10;;;5.72;;
76850;SDS011;65824;43.726;20.692;2023-06-04T00:41:09;14.75;;;6.43;;
76850;SDS011;65824;43.726;20.692;2023-06-04T00:43:39;9.15;;;5.53;;
76850;SDS011;65824;43.726;20.692;2023-06-04T00:46:05;10.40;;;5.72;;
76850;SDS011;65824;43.726;20.692;2023-06-04T00:48:33;8.15;;;5.38;;
76850;SDS011;65824;43.726;20.692;2023-06-04T00:51:01;12.85;;;5.53;;
76850;SDS011;65824;43.726;20.692;2023-06-04T00:53:27;8.00;;;5.50;;
76850;SDS011;65824;43.726;20.692;2023-06-04T00:55:53;10.90;;;5.63;;
76850;SDS011;65824;43.726;20.692;2023-06-04T00:58:25;11.30;;;5.65;;
76850;SDS011;65824;43.726;20.692;2023-06-04T01:00:53;8.57;;;5.50;;
76850;SDS011;65824;43.726;20.692;2023-06-04T01:03:25;8.90;;;5.43;;
76850;SDS011;65824;43.726;20.692;2023-06-04T01:06:00;8.95;;;5.07;;
76850;SDS011;65824;43.726;20.692;2023-06-04T01:08:50;7.88;;;4.85;;
76850;SDS011;65824;43.726;20.692;2023-06-04T01:11:19;11.75;;;5.50;;
76850;SDS011;65824;43.726;20.692;2023-06-04T01:13:55;7.57;;;5.32;;
76850;SDS011;65824;43.726;20.692;2023-06-04T01:16:21;10.45;;;5.43;;
76850;SDS011;65824;43.726;20.692;2023-06-04T01:18:46;8.93;;;5.80;;
76850;SDS011;65824;43.726;20.692;2023-06-04T01:21:13;10.52;;;6.05;;
76850;SDS011;65824;43.726;20.692;2023-06-04T01:23:48;10.05;;;6.35;;
76850;SDS011;65824;43.726;20.692;2023-06-04T01:26:24;9.45;;;6.25;;
76850;SDS011;65824;43.726;20.692;2023-06-04T01:28:55;9.98;;;6.10;;
76850;SDS011;65824;43.726;20.692;2023-06-04T01:31:24;12.32;;;6.60;;
76850;SDS011;65824;43.726;20.692;2023-06-04T01:33:53;13.43;;;6.60;;
76850;SDS011;65824;43.726;20.692;2023-06-04T01:36:36;9.23;;;6.32;;
76850;SDS011;65824;43.726;20.692;2023-06-04T01:39:02;10.07;;;6.93;;
76850;SDS011;65824;43.726;20.692;2023-06-04T01:41:27;12.52;;;7.20;;
76850;SDS011;65824;43.726;20.692;2023-06-04T01:43:53;10.98;;;6.95;;
76850;SDS011;65824;43.726;20.692;2023-06-04T01:46:20;12.07;;;7.25;;
76850;SDS011;65824;43.726;20.692;2023-06-04T01:48:45;12.73;;;7.20;;
76850;SDS011;65824;43.726;20.692;2023-06-04T01:51:13;12.00;;;7.63;;
76850;SDS011;65824;43.726;20.692;2023-06-04T01:53:39;10.52;;;7.30;;
76850;SDS011;65824;43.726;20.692;2023-06-04T01:56:05;13.10;;;7.80;;
76850;SDS011;65824;43.726;20.692;2023-06-04T01:58:32;11.25;;;7.20;;
76850;SDS011;65824;43.726;20.692;2023-06-04T02:00:59;12.35;;;7.32;;
76850;SDS011;65824;43.726;20.692;2023-06-04T02:03:25;11.95;;;7.50;;
76850;SDS011;65824;43.726;20.692;2023-06-04T02:05:52;14.32;;;7.55;;
76850;SDS011;65824;43.726;20.692;2023-06-04T02:08:18;10.85;;;7.00;;
76850;SDS011;65824;43.726;20.692;2023-06-04T02:10:46;11.23;;;7.70;;
76850;SDS011;65824;43.726;20.692;2023-06-04T02:13:12;14.10;;;7.75;;
76850;SDS011;65824;43.726;20.692;2023-06-04T02:15:39;14.75;;;7.88;;
76850;SDS011;65824;43.726;20.692;2023-06-04T02:18:14;13.05;;;7.53;;
76850;SDS011;65824;43.726;20.692;2023-06-04T02:20:42;16.00;;;7.78;;
76850;SDS011;65824;43.726;20.692;2023-06-04T02:23:09;19.20;;;8.50;;
76850;SDS011;65824;43.726;20.692;2023-06-04T02:25:36;15.82;;;9.35;;
76850;SDS011;65824;43.726;20.692;2023-06-04T02:28:02;13.85;;;9.32;;
76850;SDS011;65824;43.726;20.692;2023-06-04T02:30:28;13.15;;;8.63;;
76850;SDS011;65824;43.726;20.692;2023-06-04T02:32:55;12.98;;;9.20;;
76850;SDS011;65824;43.726;20.692;2023-06-04T02:35:22;16.73;;;8.32;;
76850;SDS011;65824;43.726;20.692;2023-06-04T02:37:49;13.40;;;9.00;;
76850;SDS011;65824;43.726;20.692;2023-06-04T02:40:14;13.27;;;8.75;;
76850;SDS011;65824;43.726;20.692;2023-06-04T02:42:40;15.95;;;9.50;;
76850;SDS011;65824;43.726;20.692;2023-06-04T02:45:09;11.98;;;8.43;;
76850;SDS011;65824;43.726;20.692;2023-06-04T02:47:36;17.05;;;7.75;;
76850;SDS011;65824;43.726;20.692;2023-06-04T02:50:02;13.85;;;7.88;;
76850;SDS011;65824;43.726;20.692;2023-06-04T02:52:28;14.02;;;8.13;;
76850;SDS011;65824;43.726;20.692;2023-06-04T02:54:55;12.75;;;7.22;;
76850;SDS011;65824;43.726;20.692;2023-06-04T02:57:21;14.43;;;7.90;;
76850;SDS011;65824;43.726;20.692;2023-06-04T02:59:46;14.02;;;7.30;;
76850;SDS011;65824;43.726;20.692;2023-06-04T03:02:12;15.65;;;7.78;;
76850;SDS011;65824;43.726;20.692;2023-06-04T03:04:40;12.10;;;8.02;;
76850;SDS011;65824;43.726;20.692;2023-06-04T03:07:07;13.15;;;8.32;;
76850;SDS011;65824;43.726;20.692;2023-06-04T03:09:36;15.23;;;9.55;;
76850;SDS011;65824;43.726;20.692;2023-06-04T03:12:03;16.52;;;9.13;;
76850;SDS011;65824;43.726;20.692;2023-06-04T03:14:29;15.98;;;9.75;;
76850;SDS011;65824;43.726;20.692;2023-06-04T03:17:01;15.25;;;8.85;;
76850;SDS011;65824;43.726;20.692;2023-06-04T03:19:38;15.20;;;9.45;;
76850;SDS011;65824;43.726;20.692;2023-06-04T03:22:05;15.65;;;9.02;;
76850;SDS011;65824;43.726;20.692;2023-06-04T03:24:33;15.15;;;9.00;;
76850;SDS011;65824;43.726;20.692;2023-06-04T03:27:03;14.52;;;9.05;;
76850;SDS011;65824;43.726;20.692;2023-06-04T03:29:36;13.63;;;9.05;;
76850;SDS011;65824;43.726;20.692;2023-06-04T03:32:02;16.70;;;9.40;;
76850;SDS011;65824;43.726;20.692;2023-06-04T03:34:31;18.85;;;9.07;;
76850;SDS011;65824;43.726;20.692;2023-06-04T03:36:58;17.85;;;10.13;;
76850;SDS011;65824;43.726;20.692;2023-06-04T03:39:25;17.80;;;9.50;;
76850;SDS011;65824;43.726;20.692;2023-06-04T03:41:51;17.17;;;9.93;;
76850;SDS011;65824;43.726;20.692;2023-06-04T03:44:17;15.75;;;9.90;;
76850;SDS011;65824;43.726;20.692;2023-06-04T03:46:45;16.58;;;10.27;;
76850;SDS011;65824;43.726;20.692;2023-06-04T03:49:12;16.23;;;10.18;;
76850;SDS011;65824;43.726;20.692;2023-06-04T03:51:38;20.27;;;10.35;;
76850;SDS011;65824;43.726;20.692;2023-06-04T03:54:04;18.30;;;11.20;;
76850;SDS011;65824;43.726;20.692;2023-06-04T03:56:30;19.40;;;11.48;;
76850;SDS011;65824;43.726;20.692;2023-06-04T03:58:56;21.15;;;11.27;;
76850;SDS011;65824;43.726;20.692;2023-06-04T04:01:28;19.10;;;11.32;;
76850;SDS011;65824;43.726;20.692;2023-06-04T04:03:54;22.27;;;12.35;;
76850;SDS011;65824;43.726;20.692;2023-06-04T04:06:20;27.27;;;12.63;;
76850;SDS011;65824;43.726;20.692;2023-06-04T04:08:46;24.58;;;12.10;;
76850;SDS011;65824;43.726;20.692;2023-06-04T04:11:16;24.85;;;14.20;;
76850;SDS011;65824;43.726;20.692;2023-06-04T04:13:42;24.75;;;13.43;;
76850;SDS011;65824;43.726;20.692;2023-06-04T04:16:14;25.20;;;12.77;;
76850;SDS011;65824;43.726;20.692;2023-06-04T04:18:41;22.75;;;12.02;;
76850;SDS011;65824;43.726;20.692;2023-06-04T04:21:11;25.25;;;13.50;;
76850;SDS011;65824;43.726;20.692;2023-06-04T04:23:37;24.58;;;12.95;;
76850;SDS011;65824;43.726;20.692;2023-06-04T04:26:05;21.20;;;11.75;;
76850;SDS011;65824;43.726;20.692;2023-06-04T04:28:32;21.83;;;11.80;;
76850;SDS011;65824;43.726;20.692;2023-06-04T04:30:59;20.33;;;10.93;;
76850;SDS011;65824;43.726;20.692;2023-06-04T04:33:27;21.40;;;11.82;;
76850;SDS011;65824;43.726;20.692;2023-06-04T04:36:04;20.08;;;11.50;;
76850;SDS011;65824;43.726;20.692;2023-06-04T04:38:30;19.13;;;10.73;;
76850;SDS011;65824;43.726;20.692;2023-06-04T04:40:58;21.83;;;10.75;;
76850;SDS011;65824;43.726;20.692;2023-06-04T04:43:29;22.80;;;11.23;;
76850;SDS011;65824;43.726;20.692;2023-06-04T04:45:56;25.17;;;11.43;;
76850;SDS011;65824;43.726;20.692;2023-06-04T04:48:21;21.33;;;11.10;;
76850;SDS011;65824;43.726;20.692;2023-06-04T04:50:47;22.77;;;12.55;;
76850;SDS011;65824;43.726;20.692;2023-06-04T04:53:13;25.38;;;12.90;;
76850;SDS011;65824;43.726;20.692;2023-06-04T04:55:38;23.50;;;10.68;;
76850;SDS011;65824;43.726;20.692;2023-06-04T04:58:04;22.45;;;10.50;;
76850;SDS011;65824;43.726;20.692;2023-06-04T05:00:30;22.25;;;12.13;;
76850;SDS011;65824;43.726;20.692;2023-06-04T05:02:56;23.45;;;11.85;;
76850;SDS011;65824;43.726;20.692;2023-06-04T05:05:23;23.77;;;11.90;;
76850;SDS011;65824;43.726;20.692;2023-06-04T05:07:49;25.63;;;12.00;;
76850;SDS011;65824;43.726;20.692;2023-06-04T05:10:15;23.17;;;12.40;;
76850;SDS011;65824;43.726;20.692;2023-06-04T05:12:58;23.65;;;12.00;;
76850;SDS011;65824;43.726;20.692;2023-06-04T05:15:25;24.23;;;11.70;;
76850;SDS011;65824;43.726;20.692;2023-06-04T05:17:52;24.13;;;12.55;;
76850;SDS011;65824;43.726;20.692;2023-06-04T05:20:20;21.25;;;11.60;;
76850;SDS011;65824;43.726;20.692;2023-06-04T05:22:51;24.25;;;11.85;;
76850;SDS011;65824;43.726;20.692;2023-06-04T05:25:16;22.55;;;11.68;;
76850;SDS011;65824;43.726;20.692;2023-06-04T05:27:43;17.20;;;9.70;;
76850;SDS011;65824;43.726;20.692;2023-06-04T05:30:09;17.38;;;10.23;;
76850;SDS011;65824;43.726;20.692;2023-06-04T05:32:36;19.63;;;10.05;;
76850;SDS011;65824;43.726;20.692;2023-06-04T05:35:05;19.30;;;10.30;;
76850;SDS011;65824;43.726;20.692;2023-06-04T05:37:32;16.80;;;8.77;;
76850;SDS011;65824;43.726;20.692;2023-06-04T05:39:59;14.38;;;8.45;;
76850;SDS011;65824;43.726;20.692;2023-06-04T05:42:25;12.98;;;8.30;;
76850;SDS011;65824;43.726;20.692;2023-06-04T05:44:51;14.63;;;7.00;;
76850;SDS011;65824;43.726;20.692;2023-06-04T05:47:17;11.93;;;6.25;;
76850;SDS011;65824;43.726;20.692;2023-06-04T05:49:43;9.10;;;6.00;;
76850;SDS011;65824;43.726;20.692;2023-06-04T05:52:09;10.90;;;5.95;;
76850;SDS011;65824;43.726;20.692;2023-06-04T05:54:35;10.68;;;6.22;;
76850;SDS011;65824;43.726;20.692;2023-06-04T05:57:05;10.15;;;5.10;;
76850;SDS011;65824;43.726;20.692;2023-06-04T05:59:30;7.80;;;4.80;;
76850;SDS011;65824;43.726;20.692;2023-06-04T06:01:56;8.70;;;5.25;;
76850;SDS011;65824;43.726;20.692;2023-06-04T06:04:22;8.00;;;4.55;;
76850;SDS011;65824;43.726;20.692;2023-06-04T06:06:48;7.38;;;3.85;;
76850;SDS011;65824;43.726;20.692;2023-06-04T06:09:14;5.85;;;4.00;;
76850;SDS011;65824;43.726;20.692;2023-06-04T06:11:41;5.60;;;3.80;;
76850;SDS011;65824;43.726;20.692;2023-06-04T06:14:07;7.10;;;3.92;;
76850;SDS011;65824;43.726;20.692;2023-06-04T06:16:32;9.07;;;4.15;;
76850;SDS011;65824;43.726;20.692;2023-06-04T06:19:00;6.75;;;3.50;;
76850;SDS011;65824;43.726;20.692;2023-06-04T06:21:26;5.97;;;3.65;;
76850;SDS011;65824;43.726;20.692;2023-06-04T06:23:57;7.55;;;4.30;;
76850;SDS011;65824;43.726;20.692;2023-06-04T06:26:23;6.40;;;3.55;;
76850;SDS011;65824;43.726;20.692;2023-06-04T06:28:55;8.35;;;4.00;;
76850;SDS011;65824;43.726;20.692;2023-06-04T06:31:21;9.73;;;3.80;;
76850;SDS011;65824;43.726;20.692;2023-06-04T06:33:46;6.50;;;3.72;;
76850;SDS011;65824;43.726;20.692;2023-06-04T06:36:12;6.05;;;3.45;;
76850;SDS011;65824;43.726;20.692;2023-06-04T06:38:39;6.72;;;3.53;;
76850;SDS011;65824;43.726;20.692;2023-06-04T06:41:10;6.97;;;3.38;;
76850;SDS011;65824;43.726;20.692;2023-06-04T06:43:36;8.63;;;3.95;;
76850;SDS011;65824;43.726;20.692;2023-06-04T06:46:01;6.15;;;3.45;;
76850;SDS011;65824;43.726;20.692;2023-06-04T06:48:27;6.72;;;3.53;;
76850;SDS011;65824;43.726;20.692;2023-06-04T06:50:56;7.50;;;3.70;;
76850;SDS011;65824;43.726;20.692;2023-06-04T06:53:22;8.48;;;3.97;;
76850;SDS011;65824;43.726;20.692;2023-06-04T06:55:53;6.03;;;3.58;;
76850;SDS011;65824;43.726;20.692;2023-06-04T06:58:18;7.20;;;3.95;;
76850;SDS011;65824;43.726;20.692;2023-06-04T07:00:46;8.93;;;4.03;;
76850;SDS011;65824;43.726;20.692;2023-06-04T07:03:12;6.82;;;3.95;;
76850;SDS011;65824;43.726;20.692;2023-06-04T07:05:43;7.25;;;3.85;;
76850;SDS011;65824;43.726;20.692;2023-06-04T07:08:09;10.18;;;4.25;;
76850;SDS011;65824;43.726;20.692;2023-06-04T07:10:35;10.07;;;4.18;;
76850;SDS011;65824;43.726;20.692;2023-06-04T07:13:01;7.65;;;4.13;;
76850;SDS011;65824;43.726;20.692;2023-06-04T07:15:27;8.52;;;3.97;;
76850;SDS011;65824;43.726;20.692;2023-06-04T07:17:52;6.82;;;3.88;;
76850;SDS011;65824;43.726;20.692;2023-06-04T07:20:18;6.88;;;3.42;;
76850;SDS011;65824;43.726;20.692;2023-06-04T07:22:43;7.28;;;3.72;;
76850;SDS011;65824;43.726;20.692;2023-06-04T07:25:09;7.30;;;4.05;;
76850;SDS011;65824;43.726;20.692;2023-06-04T07:27:35;6.93;;;3.92;;
76850;SDS011;65824;43.726;20.692;2023-06-04T07:30:01;9.60;;;4.28;;
76850;SDS011;65824;43.726;20.692;2023-06-04T07:32:26;7.70;;;3.63;;
76850;SDS011;65824;43.726;20.692;2023-06-04T07:34:52;8.63;;;4.30;;
76850;SDS011;65824;43.726;20.692;2023-06-04T07:37:18;7.07;;;3.97;;
76850;SDS011;65824;43.726;20.692;2023-06-04T07:39:44;8.85;;;4.05;;
76850;SDS011;65824;43.726;20.692;2023-06-04T07:42:10;7.35;;;3.63;;
76850;SDS011;65824;43.726;20.692;2023-06-04T07:44:36;6.45;;;3.88;;
76850;SDS011;65824;43.726;20.692;2023-06-04T07:47:03;8.25;;;3.88;;
76850;SDS011;65824;43.726;20.692;2023-06-04T07:49:29;7.57;;;3.85;;
76850;SDS011;65824;43.726;20.692;2023-06-04T07:51:55;7.57;;;3.65;;
76850;SDS011;65824;43.726;20.692;2023-06-04T07:54:26;7.65;;;3.58;;
76850;SDS011;65824;43.726;20.692;2023-06-04T07:56:51;8.70;;;4.18;;
76850;SDS011;65824;43.726;20.692;2023-06-04T07:59:21;7.93;;;3.65;;
76850;SDS011;65824;43.726;20.692;2023-06-04T08:01:49;7.88;;;4.20;;
76850;SDS011;65824;43.726;20.692;2023-06-04T08:04:16;7.03;;;3.33;;
76850;SDS011;65824;43.726;20.692;2023-06-04T08:06:41;6.72;;;3.38;;
76850;SDS011;65824;43.726;20.692;2023-06-04T08:09:07;6.75;;;3.95;;
76850;SDS011;65824;43.726;20.692;2023-06-04T08:11:35;8.70;;;3.80;;
76850;SDS011;65824;43.726;20.692;2023-06-04T08:14:02;9.75;;;3.70;;
76850;SDS011;65824;43.726;20.692;2023-06-04T08:16:30;7.45;;;3.80;;
76850;SDS011;65824;43.726;20.692;2023-06-04T08:18:56;7.53;;;3.65;;
76850;SDS011;65824;43.726;20.692;2023-06-04T08:21:28;8.23;;;3.67;;
76850;SDS011;65824;43.726;20.692;2023-06-04T08:23:54;6.97;;;3.60;;
76850;SDS011;65824;43.726;20.692;2023-06-04T08:26:20;7.65;;;3.90;;
76850;SDS011;65824;43.726;20.692;2023-06-04T08:28:49;8.07;;;3.85;;
76850;SDS011;65824;43.726;20.692;2023-06-04T08:31:16;8.93;;;3.50;;
76850;SDS011;65824;43.726;20.692;2023-06-04T08:33:42;8.23;;;3.53;;
76850;SDS011;65824;43.726;20.692;2023-06-04T08:36:10;6.47;;;3.42;;
76850;SDS011;65824;43.726;20.692;2023-06-04T08:38:36;9.50;;;3.40;;
76850;SDS011;65824;43.726;20.692;2023-06-04T08:41:06;7.03;;;3.63;;
76850;SDS011;65824;43.726;20.692;2023-06-04T08:43:39;9.40;;;3.85;;
76850;SDS011;65824;43.726;20.692;2023-06-04T08:46:09;7.53;;;3.58;;
76850;SDS011;65824;43.726;20.692;2023-06-04T08:48:35;7.57;;;3.83;;
76850;SDS011;65824;43.726;20.692;2023-06-04T08:51:02;6.05;;;3.53;;
76850;SDS011;65824;43.726;20.692;2023-06-04T08:53:30;6.57;;;3.58;;
76850;SDS011;65824;43.726;20.692;2023-06-04T08:55:58;6.47;;;3.45;;
76850;SDS011;65824;43.726;20.692;2023-06-04T08:58:26;6.22;;;3.28;;
76850;SDS011;65824;43.726;20.692;2023-06-04T09:00:55;8.25;;;3.83;;
76850;SDS011;65824;43.726;20.692;2023-06-04T09:03:21;6.70;;;3.63;;
76850;SDS011;65824;43.726;20.692;2023-06-04T09:05:47;6.25;;;3.55;;
76850;SDS011;65824;43.726;20.692;2023-06-04T09:08:16;6.00;;;3.33;;
76850;SDS011;65824;43.726;20.692;2023-06-04T09:10:43;5.40;;;3.28;;
76850;SDS011;65824;43.726;20.692;2023-06-04T09:13:11;5.63;;;3.25;;
76850;SDS011;65824;43.726;20.692;2023-06-04T09:15:40;9.50;;;3.53;;
76850;SDS011;65824;43.726;20.692;2023-06-04T09:18:08;5.85;;;3.28;;
76850;SDS011;65824;43.726;20.692;2023-06-04T09:20:34;6.68;;;3.70;;
76850;SDS011;65824;43.726;20.692;2023-06-04T09:23:11;8.43;;;3.58;;
76850;SDS011;65824;43.726;20.692;2023-06-04T09:25:37;7.70;;;3.50;;
76850;SDS011;65824;43.726;20.692;2023-06-04T09:28:12;9.27;;;3.90;;
76850;SDS011;65824;43.726;20.692;2023-06-04T09:30:50;6.03;;;3.53;;
76850;SDS011;65824;43.726;20.692;2023-06-04T09:33:17;8.02;;;3.47;;
76850;SDS011;65824;43.726;20.692;2023-06-04T09:35:52;10.60;;;3.75;;
76850;SDS011;65824;43.726;20.692;2023-06-04T09:38:20;6.25;;;3.75;;
76850;SDS011;65824;43.726;20.692;2023-06-04T09:40:47;7.63;;;3.40;;
76850;SDS011;65824;43.726;20.692;2023-06-04T09:43:21;6.93;;;3.50;;
76850;SDS011;65824;43.726;20.692;2023-06-04T09:45:51;5.75;;;2.90;;
76850;SDS011;65824;43.726;20.692;2023-06-04T09:48:21;5.68;;;3.10;;
76850;SDS011;65824;43.726;20.692;2023-06-04T09:50:46;6.65;;;3.47;;
76850;SDS011;65824;43.726;20.692;2023-06-04T09:53:13;5.60;;;3.10;;
76850;SDS011;65824;43.726;20.692;2023-06-04T09:56:00;7.95;;;3.60;;
76850;SDS011;65824;43.726;20.692;2023-06-04T09:58:29;7.22;;;3.28;;
76850;SDS011;65824;43.726;20.692;2023-06-04T10:00:57;5.43;;;2.83;;
76850;SDS011;65824;43.726;20.692;2023-06-04T10:03:32;6.18;;;2.80;;
76850;SDS011;65824;43.726;20.692;2023-06-04T10:06:02;5.15;;;3.10;;
76850;SDS011;65824;43.726;20.692;2023-06-04T10:08:29;5.90;;;3.20;;
76850;SDS011;65824;43.726;20.692;2023-06-04T10:10:56;6.70;;;3.83;;
76850;SDS011;65824;43.726;20.692;2023-06-04T10:13:30;9.60;;;4.88;;
76850;SDS011;65824;43.726;20.692;2023-06-04T10:15:59;5.53;;;3.20;;
76850;SDS011;65824;43.726;20.692;2023-06-04T10:18:28;7.13;;;4.63;;
76850;SDS011;65824;43.726;20.692;2023-06-04T10:20:55;8.35;;;5.00;;
76850;SDS011;65824;43.726;20.692;2023-06-04T10:23:21;4.18;;;2.60;;
76850;SDS011;65824;43.726;20.692;2023-06-04T10:25:49;5.03;;;2.72;;
76850;SDS011;65824;43.726;20.692;2023-06-04T10:28:19;6.68;;;3.28;;
76850;SDS011;65824;43.726;20.692;2023-06-04T10:30:45;6.25;;;2.63;;
76850;SDS011;65824;43.726;20.692;2023-06-04T10:33:15;6.30;;;3.25;;
76850;SDS011;65824;43.726;20.692;2023-06-04T10:35:43;5.38;;;3.17;;
76850;SDS011;65824;43.726;20.692;2023-06-04T10:38:09;6.90;;;3.83;;
76850;SDS011;65824;43.726;20.692;2023-06-04T10:40:37;5.57;;;3.25;;
76850;SDS011;65824;43.726;20.692;2023-06-04T10:43:08;6.80;;;3.40;;
76850;SDS011;65824;43.726;20.692;2023-06-04T10:45:35;4.70;;;2.70;;
76850;SDS011;65824;43.726;20.692;2023-06-04T10:48:04;7.50;;;3.28;;
76850;SDS011;65824;43.726;20.692;2023-06-04T10:50:33;6.50;;;3.28;;
76850;SDS011;65824;43.726;20.692;2023-06-04T10:53:01;12.85;;;3.42;;
76850;SDS011;65824;43.726;20.692;2023-06-04T10:55:30;7.65;;;3.22;;
76850;SDS011;65824;43.726;20.692;2023-06-04T10:58:00;5.72;;;3.42;;
76850;SDS011;65824;43.726;20.692;2023-06-04T11:00:42;6.88;;;3.80;;
76850;SDS011;65824;43.726;20.692;2023-06-04T11:03:11;6.25;;;3.35;;
76850;SDS011;65824;43.726;20.692;2023-06-04T11:05:42;5.50;;;3.40;;
76850;SDS011;65824;43.726;20.692;2023-06-04T11:08:35;6.30;;;3.72;;
76850;SDS011;65824;43.726;20.692;2023-06-04T11:11:10;7.32;;;3.30;;
76850;SDS011;65824;43.726;20.692;2023-06-04T11:13:41;6.97;;;3.30;;
76850;SDS011;65824;43.726;20.692;2023-06-04T11:16:15;7.47;;;3.20;;
76850;SDS011;65824;43.726;20.692;2023-06-04T11:18:56;6.38;;;3.03;;
76850;SDS011;65824;43.726;20.692;2023-06-04T11:23:59;5.07;;;3.08;;
76850;SDS011;65824;43.726;20.692;2023-06-04T11:26:32;5.55;;;2.97;;
76850;SDS011;65824;43.726;20.692;2023-06-04T11:29:00;5.40;;;3.05;;
76850;SDS011;65824;43.726;20.692;2023-06-04T11:34:10;6.00;;;2.90;;
76850;SDS011;65824;43.726;20.692;2023-06-04T11:36:38;5.68;;;3.58;;
76850;SDS011;65824;43.726;20.692;2023-06-04T11:39:05;5.78;;;3.40;;
76850;SDS011;65824;43.726;20.692;2023-06-04T11:41:33;5.95;;;2.97;;
76850;SDS011;65824;43.726;20.692;2023-06-04T11:44:04;5.68;;;3.20;;
76850;SDS011;65824;43.726;20.692;2023-06-04T11:46:32;5.30;;;3.03;;
76850;SDS011;65824;43.726;20.692;2023-06-04T11:49:11;5.18;;;3.17;;
76850;SDS011;65824;43.726;20.692;2023-06-04T11:54:11;8.98;;;3.20;;
76850;SDS011;65824;43.726;20.692;2023-06-04T11:56:40;5.35;;;3.20;;
76850;SDS011;65824;43.726;20.692;2023-06-04T11:59:07;6.30;;;2.78;;
76850;SDS011;65824;43.726;20.692;2023-06-04T12:04:14;5.88;;;2.70;;
76850;SDS011;65824;43.726;20.692;2023-06-04T12:06:55;5.35;;;2.70;;
76850;SDS011;65824;43.726;20.692;2023-06-04T12:09:30;4.63;;;3.13;;
76850;SDS011;65824;43.726;20.692;2023-06-04T12:11:58;5.05;;;2.90;;
76850;SDS011;65824;43.726;20.692;2023-06-04T12:14:32;7.63;;;3.08;;
76850;SDS011;65824;43.726;20.692;2023-06-04T12:17:02;5.75;;;3.22;;
76850;SDS011;65824;43.726;20.692;2023-06-04T12:19:31;5.68;;;2.72;;
76850;SDS011;65824;43.726;20.692;2023-06-04T12:21:59;5.05;;;3.25;;
76850;SDS011;65824;43.726;20.692;2023-06-04T12:24:27;5.78;;;3.03;;
76850;SDS011;65824;43.726;20.692;2023-06-04T12:27:00;7.57;;;4.07;;
76850;SDS011;65824;43.726;20.692;2023-06-04T12:29:31;5.20;;;3.00;;
76850;SDS011;65824;43.726;20.692;2023-06-04T12:34:31;5.93;;;3.47;;
76850;SDS011;65824;43.726;20.692;2023-06-04T12:36:57;7.35;;;4.70;;
76850;SDS011;65824;43.726;20.692;2023-06-04T12:39:24;5.57;;;3.45;;
76850;SDS011;65824;43.726;20.692;2023-06-04T12:41:49;5.97;;;3.50;;
76850;SDS011;65824;43.726;20.692;2023-06-04T12:44:15;4.80;;;3.20;;
76850;SDS011;65824;43.726;20.692;2023-06-04T12:46:40;6.65;;;3.70;;
76850;SDS011;65824;43.726;20.692;2023-06-04T12:49:06;5.28;;;3.47;;
76850;SDS011;65824;43.726;20.692;2023-06-04T12:51:32;6.05;;;3.85;;
76850;SDS011;65824;43.726;20.692;2023-06-04T12:53:58;4.60;;;3.30;;
76850;SDS011;65824;43.726;20.692;2023-06-04T12:56:25;5.70;;;3.40;;
76850;SDS011;65824;43.726;20.692;2023-06-04T12:58:52;5.70;;;3.40;;
76850;SDS011;65824;43.726;20.692;2023-06-04T13:01:19;5.18;;;3.40;;
76850;SDS011;65824;43.726;20.692;2023-06-04T13:03:46;9.73;;;3.75;;
76850;SDS011;65824;43.726;20.692;2023-06-04T13:06:11;5.38;;;3.47;;
76850;SDS011;65824;43.726;20.692;2023-06-04T13:08:37;5.88;;;3.72;;
76850;SDS011;65824;43.726;20.692;2023-06-04T13:11:03;6.07;;;4.43;;
76850;SDS011;65824;43.726;20.692;2023-06-04T13:13:30;4.57;;;3.30;;
76850;SDS011;65824;43.726;20.692;2023-06-04T13:15:57;6.70;;;3.40;;
76850;SDS011;65824;43.726;20.692;2023-06-04T13:18:23;5.05;;;3.55;;
76850;SDS011;65824;43.726;20.692;2023-06-04T13:20:48;7.78;;;3.72;;
76850;SDS011;65824;43.726;20.692;2023-06-04T13:23:15;6.10;;;3.60;;
76850;SDS011;65824;43.726;20.692;2023-06-04T13:25:41;5.50;;;3.40;;
76850;SDS011;65824;43.726;20.692;2023-06-04T13:28:07;8.00;;;3.40;;
76850;SDS011;65824;43.726;20.692;2023-06-04T13:30:36;5.53;;;3.70;;
76850;SDS011;65824;43.726;20.692;2023-06-04T13:33:05;5.35;;;3.60;;
76850;SDS011;65824;43.726;20.692;2023-06-04T13:35:31;7.05;;;3.60;;
76850;SDS011;65824;43.726;20.692;2023-06-04T13:37:56;9.15;;;3.60;;
76850;SDS011;65824;43.726;20.692;2023-06-04T13:40:24;4.78;;;3.20;;
76850;SDS011;65824;43.726;20.692;2023-06-04T13:42:54;5.22;;;3.20;;
76850;SDS011;65824;43.726;20.692;2023-06-04T13:45:19;4.40;;;3.13;;
76850;SDS011;65824;43.726;20.692;2023-06-04T13:47:50;5.18;;;3.58;;
76850;SDS011;65824;43.726;20.692;2023-06-04T13:50:16;8.32;;;3.20;;
76850;SDS011;65824;43.726;20.692;2023-06-04T13:52:44;4.63;;;3.15;;
76850;SDS011;65824;43.726;20.692;2023-06-04T13:55:09;6.25;;;3.47;;
76850;SDS011;65824;43.726;20.692;2023-06-04T13:57:40;5.05;;;2.92;;
76850;SDS011;65824;43.726;20.692;2023-06-04T14:00:07;7.07;;;3.50;;
76850;SDS011;65824;43.726;20.692;2023-06-04T14:02:34;5.93;;;3.00;;
76850;SDS011;65824;43.726;20.692;2023-06-04T14:05:00;5.40;;;3.78;;
76850;SDS011;65824;43.726;20.692;2023-06-04T14:07:28;5.35;;;3.50;;
76850;SDS011;65824;43.726;20.692;2023-06-04T14:09:55;5.82;;;3.45;;
76850;SDS011;65824;43.726;20.692;2023-06-04T14:12:22;5.60;;;3.30;;
76850;SDS011;65824;43.726;20.692;2023-06-04T14:14:48;4.68;;;2.78;;
76850;SDS011;65824;43.726;20.692;2023-06-04T14:17:16;4.95;;;2.83;;
76850;SDS011;65824;43.726;20.692;2023-06-04T14:19:42;4.38;;;2.80;;
76850;SDS011;65824;43.726;20.692;2023-06-04T14:22:09;3.50;;;2.70;;
76850;SDS011;65824;43.726;20.692;2023-06-04T14:24:40;3.65;;;2.53;;
76850;SDS011;65824;43.726;20.692;2023-06-04T14:27:06;4.45;;;2.78;;
76850;SDS011;65824;43.726;20.692;2023-06-04T14:29:35;5.82;;;2.80;;
76850;SDS011;65824;43.726;20.692;2023-06-04T14:32:02;5.45;;;2.90;;
76850;SDS011;65824;43.726;20.692;2023-06-04T14:34:28;3.90;;;2.22;;
76850;SDS011;65824;43.726;20.692;2023-06-04T14:36:54;5.75;;;2.65;;
76850;SDS011;65824;43.726;20.692;2023-06-04T14:39:22;4.50;;;2.75;;
76850;SDS011;65824;43.726;20.692;2023-06-04T14:41:49;4.03;;;2.35;;
76850;SDS011;65824;43.726;20.692;2023-06-04T14:44:15;5.75;;;2.45;;
76850;SDS011;65824;43.726;20.692;2023-06-04T14:46:41;4.22;;;2.40;;